Flight Information

DEPARTURE
SACRAMENTO, CA
Elevation:
26
Runways:
17R/35L - 8598x150 - CONC-G
17L/35R - 8605x150 - CONC-G
Active PE Departure:
17R
Current PE ATIS:
I
Altimeter:
29.94
Remarks:
V F R DEPARTURES CONTACT CLEARANCE DELIVERY, ADVISE ON COURSE HEADING, ALTITUDE, AND IF FLIGHT FOLLOWING IS REQUESTED. NOTICE TO AIRMEN RUNWAY 1 7 LEFT 3 5 RIGHT CLOSED.
ATIS:
126.75 916-874-0679
Clearance Delivery:
121.1
Ground:
121.7
Tower:
CAPITOL TOWER 125.7
DESTINATION
,
Elevation:
TPA:
1000 (est.)


6847.7 NM69° True-16° Var53° HDG

Flight Plan:
(click to file on line)

1. Type
2. Aircraft Identification
3. Aircraft Type / Special Equipment
4. True Airspeed
kts
5. Departure Airport
(ICAO code)
6. Arriving Airport
(ICAO code)
7. Cruising Altitude
ft
8. Alternate Airport
(ICAO code)
9. Route of Flight
10. Remarks


00:00:00 Departure ATIS: Destination ATIS:

Clearance Limit:
Route:
Altitude: Expect in minutes
Frequency:
Transponder: (7500 Hijack / 7600 Lost Comms / 7700 Emergency)


KSMF 010453Z 00000KT 6SM HZ FU FEW040 24/12 A2995 RMK AO2 SLP141 FU FEW040 T02440117
Time: 2020-10-01T04:53:00Z
1601528392
Winds: calm
Visibility: 6.0 sm
Clouds (AGL): FEW 4000
Temperature: 24.4 C
Dew Point: 11.7 C
Pressure: 29.949802 in Hgbr


Notes:

Data extracted from FAA Digital Chart Supplement. Effective: 0901Z Thursday, Sep 10, 2020 to 0901Z Thursday, Nov 5, 2020
Current ATIS data is provided courtisy of PilotEdge.